createdAt,value
2022-12-18T00:02:50.449Z,13.57
2022-12-18T00:05:53.474Z,14.23
2022-12-18T00:08:56.388Z,14.23
2022-12-18T00:11:58.593Z,14.18
2022-12-18T00:15:00.861Z,13.57
2022-12-18T00:18:03.565Z,13.77
2022-12-18T00:21:07.100Z,14.38
2022-12-18T00:24:09.746Z,13.48
2022-12-18T00:27:12.049Z,13.80
2022-12-18T00:30:14.389Z,14.83
2022-12-18T00:33:16.619Z,15.00
2022-12-18T00:36:20.861Z,13.23
2022-12-18T00:39:23.218Z,13.68
2022-12-18T00:42:44.066Z,12.77
2022-12-18T00:45:46.580Z,12.67
2022-12-18T00:48:49.056Z,15.03
2022-12-18T00:51:51.427Z,12.50
2022-12-18T00:54:53.781Z,14.70
2022-12-18T00:57:56.018Z,15.88
2022-12-18T01:00:58.361Z,12.90
2022-12-18T01:04:01.441Z,13.33
2022-12-18T01:07:03.701Z,12.30
2022-12-18T01:10:06.682Z,12.80
2022-12-18T01:13:11.048Z,13.02
2022-12-18T01:16:14.318Z,13.17
2022-12-18T01:19:16.599Z,12.77
2022-12-18T01:22:19.001Z,14.02
2022-12-18T01:25:21.296Z,14.32
2022-12-18T01:28:23.622Z,13.05
2022-12-18T01:31:30.396Z,11.73
2022-12-18T01:34:32.716Z,12.40
2022-12-18T01:37:36.233Z,13.32
2022-12-18T01:40:38.566Z,12.35
2022-12-18T01:43:54.883Z,14.27
2022-12-18T01:46:57.136Z,13.10
2022-12-18T01:50:00.746Z,12.17
2022-12-18T01:53:09.223Z,12.38
2022-12-18T01:56:14.568Z,14.40
2022-12-18T01:59:17.051Z,12.57
2022-12-18T02:02:19.941Z,12.27
2022-12-18T02:05:31.517Z,12.47
2022-12-18T02:08:43.385Z,12.77
2022-12-18T02:11:50.547Z,12.52
2022-12-18T02:14:55.927Z,12.27
2022-12-18T02:18:02.985Z,12.30
2022-12-18T02:21:14.377Z,12.47
2022-12-18T02:24:49.008Z,12.52
2022-12-18T02:27:52.166Z,12.65
2022-12-18T02:30:57.472Z,12.98
2022-12-18T02:34:01.390Z,12.77
2022-12-18T02:37:05.481Z,12.07
2022-12-18T02:40:09.440Z,11.82
2022-12-18T02:43:15.295Z,12.95
2022-12-18T02:46:32.280Z,11.85
2022-12-18T02:49:56.314Z,13.13
2022-12-18T02:53:17.491Z,14.80
2022-12-18T02:56:22.712Z,12.50
2022-12-18T02:59:31.876Z,13.50
2022-12-18T03:02:38.575Z,12.68
2022-12-18T03:05:44.156Z,12.00
2022-12-18T03:08:50.209Z,12.00
2022-12-18T03:12:18.126Z,11.57
2022-12-18T03:15:23.136Z,12.13
2022-12-18T03:18:37.919Z,13.02
2022-12-18T03:21:43.707Z,12.13
2022-12-18T03:24:47.365Z,12.63
2022-12-18T03:27:52.751Z,14.43
2022-12-18T03:30:59.110Z,12.70
2022-12-18T03:34:04.528Z,14.30
2022-12-18T03:37:14.905Z,13.03
2022-12-18T03:40:17.439Z,14.27
2022-12-18T03:43:49.705Z,12.68
2022-12-18T03:47:04.340Z,12.60
2022-12-18T03:50:15.902Z,12.75
2022-12-18T03:53:24.980Z,13.40
2022-12-18T03:56:30.636Z,12.23
2022-12-18T03:59:35.181Z,12.82
2022-12-18T04:02:39.369Z,13.40
2022-12-18T04:05:44.163Z,13.95
2022-12-18T04:08:47.924Z,13.73
2022-12-18T04:11:53.900Z,13.67
2022-12-18T04:14:56.710Z,14.60
2022-12-18T04:17:59.440Z,13.63
2022-12-18T04:21:08.190Z,13.82
2022-12-18T04:24:10.723Z,13.17
2022-12-18T04:27:17.922Z,13.33
2022-12-18T04:30:24.564Z,13.93
2022-12-18T04:33:26.888Z,12.05
2022-12-18T04:36:29.451Z,14.18
2022-12-18T04:39:31.983Z,14.03
2022-12-18T04:42:40.415Z,13.23
2022-12-18T04:45:42.704Z,11.85
2022-12-18T04:48:46.687Z,13.23
2022-12-18T04:51:48.907Z,12.35
2022-12-18T04:54:51.450Z,12.60
2022-12-18T04:57:53.744Z,13.73
2022-12-18T05:00:56.259Z,13.38
2022-12-18T05:03:58.540Z,14.35
2022-12-18T05:07:00.774Z,13.20
2022-12-18T05:10:03.321Z,14.37
2022-12-18T05:13:08.261Z,14.20
2022-12-18T05:16:10.650Z,14.48
2022-12-18T05:19:12.853Z,16.42
2022-12-18T05:22:15.449Z,16.77
2022-12-18T05:25:18.141Z,15.00
2022-12-18T05:28:21.074Z,15.23
2022-12-18T05:31:23.472Z,15.63
2022-12-18T05:34:25.735Z,17.63
2022-12-18T05:37:28.227Z,15.70
2022-12-18T05:40:30.435Z,17.00
2022-12-18T05:43:35.065Z,15.77
2022-12-18T05:46:37.457Z,14.70
2022-12-18T05:49:42.631Z,13.85
2022-12-18T05:52:44.818Z,14.18
2022-12-18T05:55:47.470Z,13.67
2022-12-18T05:58:53.024Z,13.43
2022-12-18T06:01:55.347Z,13.10
2022-12-18T06:04:57.700Z,15.82
2022-12-18T06:07:59.902Z,13.18
2022-12-18T06:11:02.141Z,12.10
2022-12-18T06:14:04.911Z,13.47
2022-12-18T06:17:07.273Z,13.25
2022-12-18T06:20:09.755Z,13.15
2022-12-18T06:23:12.144Z,12.80
2022-12-18T06:26:14.852Z,16.93
2022-12-18T06:29:17.043Z,15.90
2022-12-18T06:32:19.337Z,14.60
2022-12-18T06:35:21.567Z,14.55
2022-12-18T06:38:24.688Z,11.73
2022-12-18T06:41:27.231Z,15.10
2022-12-18T06:44:29.491Z,14.13
2022-12-18T06:47:31.659Z,13.52
2022-12-18T06:50:33.883Z,14.77
2022-12-18T06:53:36.128Z,14.52
2022-12-18T06:56:38.393Z,15.23
2022-12-18T06:59:40.537Z,15.47
2022-12-18T07:02:42.949Z,14.15
2022-12-18T07:05:45.256Z,14.50
2022-12-18T07:08:48.008Z,14.25
2022-12-18T07:11:50.268Z,14.57
2022-12-18T07:14:52.519Z,15.80
2022-12-18T07:17:54.803Z,14.30
2022-12-18T07:20:57.020Z,14.00
2022-12-18T07:23:59.601Z,14.70
2022-12-18T07:27:01.851Z,17.60
2022-12-18T07:30:04.285Z,16.57
2022-12-18T07:33:06.564Z,15.75
2022-12-18T07:36:09.025Z,14.60
2022-12-18T07:39:14.590Z,15.88
2022-12-18T07:42:32.009Z,15.30
2022-12-18T07:45:34.416Z,16.00
2022-12-18T07:48:36.687Z,15.10
2022-12-18T07:51:38.834Z,14.90
2022-12-18T07:54:41.472Z,16.80
2022-12-18T07:57:53.421Z,15.07
2022-12-18T08:01:08.798Z,16.20
2022-12-18T08:04:11.106Z,17.60
2022-12-18T08:07:13.945Z,16.83
2022-12-18T08:10:16.580Z,15.40
2022-12-18T08:13:18.751Z,16.43
2022-12-18T08:16:21.663Z,17.13
2022-12-18T08:19:23.910Z,17.50
2022-12-18T08:22:26.330Z,17.35
2022-12-18T08:25:28.603Z,17.27
2022-12-18T08:28:30.808Z,16.37
2022-12-18T08:31:34.045Z,14.20
2022-12-18T08:34:36.551Z,16.13
2022-12-18T08:37:38.903Z,16.85
2022-12-18T08:40:41.148Z,13.75
2022-12-18T08:44:01.917Z,14.63
2022-12-18T08:47:04.931Z,14.80
2022-12-18T08:50:07.235Z,14.05
2022-12-18T08:53:10.185Z,14.95
2022-12-18T08:56:12.598Z,14.95
2022-12-18T08:59:19.524Z,13.83
2022-12-18T09:02:22.609Z,17.20
2022-12-18T09:05:24.888Z,17.00
2022-12-18T09:08:27.383Z,17.65
2022-12-18T09:11:30.346Z,17.55
2022-12-18T09:14:32.641Z,15.90
2022-12-18T09:17:34.920Z,15.97
2022-12-18T09:20:38.056Z,15.30
2022-12-18T09:23:40.436Z,16.13
2022-12-18T09:26:45.015Z,15.38
2022-12-18T09:29:49.786Z,15.60
2022-12-18T09:32:52.155Z,17.13
2022-12-18T09:35:57.021Z,14.10
2022-12-18T09:39:03.759Z,14.65
2022-12-18T09:42:12.113Z,14.05
2022-12-18T09:45:15.994Z,14.27
2022-12-18T09:48:30.366Z,14.23
2022-12-18T09:51:41.137Z,14.50
2022-12-18T09:54:45.380Z,14.27
2022-12-18T09:57:50.310Z,14.32
2022-12-18T10:00:53.210Z,14.43
2022-12-18T10:03:56.072Z,12.93
2022-12-18T10:07:13.767Z,13.57
2022-12-18T10:10:15.974Z,13.20
2022-12-18T10:13:29.201Z,13.65
2022-12-18T10:16:43.642Z,13.00
2022-12-18T10:19:54.228Z,12.93
2022-12-18T10:23:02.569Z,13.80
2022-12-18T10:26:04.840Z,15.25
2022-12-18T10:29:13.849Z,14.13
2022-12-18T10:32:18.201Z,11.67
2022-12-18T10:35:23.751Z,13.47
2022-12-18T10:38:28.057Z,12.40
2022-12-18T10:41:31.918Z,13.95
2022-12-18T10:44:34.152Z,14.77
2022-12-18T10:47:36.895Z,13.83
2022-12-18T10:54:01.610Z,13.48
2022-12-18T10:57:17.890Z,13.95
2022-12-18T11:00:31.240Z,12.80
2022-12-18T11:03:42.767Z,12.40
2022-12-18T11:07:00.555Z,11.77
2022-12-18T11:10:02.834Z,13.02
2022-12-18T11:13:12.990Z,11.98
2022-12-18T11:16:21.603Z,11.57
2022-12-18T11:19:41.119Z,11.77
2022-12-18T11:22:43.679Z,11.60
2022-12-18T11:25:53.212Z,12.82
2022-12-18T11:29:09.170Z,12.13
2022-12-18T11:32:30.279Z,11.40
2022-12-18T11:35:41.025Z,12.17
2022-12-18T11:38:44.338Z,12.40
2022-12-18T11:42:11.058Z,12.02
2022-12-18T11:45:13.907Z,11.35
2022-12-18T11:48:27.933Z,12.73
2022-12-18T11:51:36.317Z,13.27
2022-12-18T11:54:38.648Z,11.47
2022-12-18T11:57:47.206Z,12.25
2022-12-18T12:00:54.412Z,12.70
2022-12-18T12:04:15.650Z,12.70
2022-12-18T12:07:27.232Z,13.23
2022-12-18T12:10:38.194Z,11.53
2022-12-18T12:13:44.842Z,11.88
2022-12-18T12:16:50.123Z,11.95
2022-12-18T12:20:11.220Z,11.93
2022-12-18T12:23:38.759Z,12.03
2022-12-18T12:26:40.965Z,9.47
2022-12-18T12:29:48.930Z,9.10
2022-12-18T12:32:51.191Z,9.48
2022-12-18T12:36:19.849Z,9.27
2022-12-18T12:39:24.355Z,9.67
2022-12-18T12:42:54.137Z,9.77
2022-12-18T12:46:07.658Z,9.85
2022-12-18T12:49:15.280Z,9.40
2022-12-18T12:52:23.993Z,9.90
2022-12-18T12:55:28.048Z,10.43
2022-12-18T12:58:34.595Z,9.53
2022-12-18T13:01:42.930Z,8.70
2022-12-18T13:04:48.668Z,9.68
2022-12-18T13:07:54.201Z,10.40
2022-12-18T13:11:17.150Z,9.30
2022-12-18T13:14:23.555Z,10.00
2022-12-18T13:17:30.368Z,10.90
2022-12-18T13:20:37.254Z,11.50
2022-12-18T13:23:40.055Z,10.80
2022-12-18T13:26:43.076Z,11.20
2022-12-18T13:29:46.289Z,11.67
2022-12-18T13:32:49.125Z,10.60
2022-12-18T13:35:51.291Z,10.35
2022-12-18T13:39:12.239Z,10.48
2022-12-18T13:42:34.565Z,11.30
2022-12-18T13:45:42.780Z,11.37
2022-12-18T13:48:50.558Z,11.05
2022-12-18T13:51:55.455Z,12.60
2022-12-18T13:54:58.841Z,13.63
2022-12-18T13:58:05.732Z,13.50
2022-12-18T14:01:22.471Z,15.43
2022-12-18T14:04:26.961Z,15.45
2022-12-18T14:07:34.534Z,15.05
2022-12-18T14:10:49.753Z,15.98
2022-12-18T14:13:53.244Z,15.03
2022-12-18T14:16:55.591Z,16.43
2022-12-18T14:19:58.276Z,16.40
2022-12-18T14:23:01.298Z,15.25
2022-12-18T14:26:06.245Z,18.08
2022-12-18T14:29:28.220Z,17.93
2022-12-18T14:32:30.448Z,18.40
2022-12-18T14:35:36.866Z,19.17
2022-12-18T14:38:40.585Z,17.70
2022-12-18T14:41:42.983Z,19.02
2022-12-18T14:45:13.987Z,18.57
2022-12-18T14:48:15.548Z,19.50
2022-12-18T14:51:29.033Z,18.60
2022-12-18T14:54:32.226Z,18.15
2022-12-18T14:57:37.406Z,17.98
2022-12-18T15:00:42.495Z,18.47
2022-12-18T15:03:45.366Z,18.50
2022-12-18T15:06:49.248Z,19.02
2022-12-18T15:10:03.876Z,17.92
2022-12-18T15:13:06.636Z,17.80
2022-12-18T15:16:12.858Z,18.40
2022-12-18T15:19:17.592Z,18.43
2022-12-18T15:22:26.720Z,18.20
2022-12-18T15:25:33.231Z,19.75
2022-12-18T15:28:40.447Z,19.52
2022-12-18T15:31:43.132Z,19.17
2022-12-18T15:34:45.696Z,20.27
2022-12-18T15:37:48.383Z,20.23
2022-12-18T15:40:50.793Z,19.42
2022-12-18T15:43:53.804Z,19.33
2022-12-18T15:46:55.960Z,19.87
2022-12-18T15:49:58.336Z,20.03
2022-12-18T15:53:00.603Z,21.58
2022-12-18T15:56:21.723Z,20.70
2022-12-18T15:59:24.572Z,20.20
2022-12-18T16:02:27.567Z,19.87
2022-12-18T16:05:30.632Z,22.07
2022-12-18T16:08:33.443Z,22.63
2022-12-18T16:11:41.352Z,22.95
2022-12-18T16:14:44.172Z,21.55
2022-12-18T16:17:47.522Z,20.13
2022-12-18T16:20:50.147Z,21.97
2022-12-18T16:23:52.568Z,21.92
2022-12-18T16:26:57.288Z,21.98
2022-12-18T16:29:59.709Z,22.88
2022-12-18T16:33:02.266Z,24.93
2022-12-18T16:36:04.825Z,22.33
2022-12-18T16:39:07.643Z,21.80
2022-12-18T16:42:13.699Z,21.73
2022-12-18T16:45:17.184Z,22.58
2022-12-18T16:48:19.604Z,23.20
2022-12-18T16:51:22.069Z,23.00
2022-12-18T16:54:24.737Z,21.30
2022-12-18T16:57:27.360Z,24.92
2022-12-18T17:00:29.757Z,24.23
2022-12-18T17:03:32.262Z,24.10
2022-12-18T17:06:36.151Z,23.27
2022-12-18T17:09:38.628Z,23.55
2022-12-18T17:12:41.129Z,24.23
2022-12-18T17:15:43.663Z,25.83
2022-12-18T17:18:45.999Z,24.33
2022-12-18T17:21:49.749Z,25.47
2022-12-18T17:24:52.279Z,26.60
2022-12-18T17:27:54.765Z,28.17
2022-12-18T17:30:57.378Z,28.75
2022-12-18T17:34:01.178Z,28.60
2022-12-18T17:37:04.084Z,26.57
2022-12-18T17:40:06.876Z,26.00
2022-12-18T17:43:09.750Z,27.35
2022-12-18T17:46:13.794Z,25.77
2022-12-18T17:49:16.387Z,27.13
2022-12-18T17:52:18.709Z,25.97
2022-12-18T17:55:20.978Z,27.23
2022-12-18T17:58:23.906Z,26.63
2022-12-18T18:01:26.866Z,27.48
2022-12-18T18:04:29.434Z,28.10
2022-12-18T18:07:31.813Z,28.67
2022-12-18T18:10:40.879Z,28.33
2022-12-18T18:14:01.392Z,27.00
2022-12-18T18:17:04.641Z,30.38
2022-12-18T18:20:08.356Z,27.20
2022-12-18T18:23:11.457Z,29.13
2022-12-18T18:26:13.968Z,30.40
2022-12-18T18:29:21.136Z,28.83
2022-12-18T18:32:23.649Z,31.23
2022-12-18T18:35:52.744Z,30.87
2022-12-18T18:38:48.766Z,30.10
2022-12-18T18:41:51.136Z,28.40
2022-12-18T18:44:53.554Z,27.85
2022-12-18T18:47:55.935Z,28.38
2022-12-18T18:50:59.383Z,30.30
2022-12-18T18:54:01.708Z,29.60
2022-12-18T18:57:20.286Z,29.55
2022-12-18T19:00:24.667Z,29.20
2022-12-18T19:03:28.063Z,31.35
2022-12-18T19:06:30.758Z,30.43
2022-12-18T19:09:33.945Z,29.07
2022-12-18T19:12:54.714Z,29.58
2022-12-18T19:16:05.323Z,30.15
2022-12-18T19:19:08.001Z,29.40
2022-12-18T19:22:11.025Z,32.07
2022-12-18T19:25:13.544Z,31.43
2022-12-18T19:28:22.007Z,30.75
2022-12-18T19:31:29.195Z,29.00
2022-12-18T19:34:34.484Z,35.20
2022-12-18T19:37:36.737Z,31.70
2022-12-18T19:40:42.301Z,31.43
2022-12-18T19:43:45.009Z,34.58
2022-12-18T19:46:49.694Z,31.50
2022-12-18T19:49:52.261Z,30.77
2022-12-18T19:52:54.666Z,26.97
2022-12-18T19:55:57.068Z,26.50
2022-12-18T19:58:59.858Z,29.17
2022-12-18T20:02:02.479Z,25.80
2022-12-18T20:05:05.784Z,25.83
2022-12-18T20:08:09.635Z,25.80
2022-12-18T20:11:11.845Z,26.30
2022-12-18T20:14:23.163Z,24.02
2022-12-18T20:17:26.202Z,25.90
2022-12-18T20:20:30.451Z,23.42
2022-12-18T20:23:33.772Z,22.13
2022-12-18T20:26:40.589Z,22.93
2022-12-18T20:29:43.721Z,22.35
2022-12-18T20:32:45.900Z,23.50
2022-12-18T20:35:48.289Z,22.45
2022-12-18T20:38:53.125Z,22.87
2022-12-18T20:41:59.761Z,23.00
2022-12-18T20:45:02.064Z,22.95
2022-12-18T20:48:04.325Z,21.38
2022-12-18T20:51:10.740Z,20.70
2022-12-18T20:54:13.063Z,21.33
2022-12-18T20:57:15.286Z,20.33
2022-12-18T21:00:20.057Z,21.42
2022-12-18T21:03:23.654Z,22.67
2022-12-18T21:06:25.964Z,25.10
2022-12-18T21:09:28.205Z,21.40
2022-12-18T21:12:43.895Z,23.70
2022-12-18T21:15:52.961Z,26.77
2022-12-18T21:18:56.323Z,24.98
2022-12-18T21:21:59.601Z,24.25
2022-12-18T21:25:01.961Z,23.33
2022-12-18T21:28:04.269Z,25.80
2022-12-18T21:31:06.600Z,22.90
2022-12-18T21:34:15.428Z,25.33
2022-12-18T21:37:17.648Z,25.83
2022-12-18T21:40:19.863Z,22.47
2022-12-18T21:43:40.697Z,21.10
2022-12-18T21:46:44.266Z,21.50
2022-12-18T21:49:46.544Z,22.83
2022-12-18T21:52:48.736Z,22.83
2022-12-18T21:55:57.754Z,24.87
2022-12-18T21:58:59.951Z,21.27
2022-12-18T22:02:04.517Z,23.50
2022-12-18T22:05:07.071Z,22.08
2022-12-18T22:08:09.417Z,23.88
2022-12-18T22:11:12.682Z,24.47
2022-12-18T22:14:15.387Z,22.47
2022-12-18T22:17:20.088Z,24.50
2022-12-18T22:20:23.591Z,26.33
2022-12-18T22:23:25.750Z,27.88
2022-12-18T22:26:28.978Z,26.87
2022-12-18T22:29:49.997Z,25.03
2022-12-18T22:32:52.342Z,26.35
2022-12-18T22:35:54.648Z,26.15
2022-12-18T22:38:56.901Z,23.70
2022-12-18T22:41:59.285Z,23.83
2022-12-18T22:45:01.450Z,25.87
2022-12-18T22:48:04.158Z,23.85
2022-12-18T22:51:06.376Z,23.30
2022-12-18T22:54:08.824Z,24.17
2022-12-18T22:57:11.427Z,24.37
2022-12-18T23:00:13.911Z,24.20
2022-12-18T23:03:16.153Z,21.35
2022-12-18T23:06:18.992Z,20.88
2022-12-18T23:09:21.231Z,22.55
2022-12-18T23:12:23.424Z,23.97
2022-12-18T23:15:28.075Z,24.47
2022-12-18T23:18:30.740Z,22.88
2022-12-18T23:21:33.311Z,25.15
2022-12-18T23:24:36.252Z,23.40
2022-12-18T23:27:38.417Z,21.77
2022-12-18T23:30:40.635Z,22.30
2022-12-18T23:33:43.528Z,23.77
2022-12-18T23:36:47.867Z,23.60
2022-12-18T23:39:51.502Z,22.90
2022-12-18T23:42:53.755Z,23.67
2022-12-18T23:45:55.979Z,27.20
2022-12-18T23:49:02.007Z,24.27
2022-12-18T23:52:04.225Z,24.75
2022-12-18T23:55:06.732Z,23.83
2022-12-18T23:58:18.813Z,25.33
